Time;durP1;ratioP1;P1;durP2;ratioP2;P2;SDS_P1;SDS_P2;PMS_P1;PMS_P2;Temp;Humidity;BMP_temperature;BMP_pressure;BME280_temperature;BME280_humidity;BME280_pressure;Samples;Min_cycle;Max_cycle;Signal;HPM_P1;HPM_P2
2022/09/02 00:00:11;;;;;;;;;;;26.90;51.90;;;;;;858590;23;1227;-87
2022/09/02 00:00:32;;;;;;;;;;;;;;;;;;860918;23;1196;-88
2022/09/02 00:01:00;;;;;;;;;;;26.90;52.00;;;;;;861246;23;917;-87
2022/09/02 00:01:23;;;;;;;;;;;26.90;52.10;;;;;;856750;23;1090;-87
2022/09/02 00:01:45;;;;;;;;;;;26.90;52.30;;;;;;859390;23;1071;-87
2022/09/02 00:02:06;;;;;;;;;;;26.90;52.00;;;;;;863984;22;1316;-84
2022/09/02 00:02:30;;;;;;;;;;;;;;;;;;865370;22;773;-87
2022/09/02 00:02:50;;;;;;;;;;;26.90;51.90;;;;;;860942;23;1248;-87
2022/09/02 00:03:11;;;;;;;;;;;26.90;52.00;;;;;;861156;23;710;-87
2022/09/02 00:03:33;;;;;;;;;;;26.80;52.20;;;;;;862495;22;1350;-88
2022/09/02 00:03:58;;;;;;;;;;;26.80;52.10;;;;;;865393;22;792;-87
2022/09/02 00:04:23;;;;;;;;;;;26.80;52.30;;;;;;865304;22;829;-88
2022/09/02 00:04:44;;;;;;;;;;;26.90;52.00;;;;;;867890;22;769;-87
2022/09/02 00:05:05;;;;;;;;;;;26.80;52.30;;;;;;864670;22;1433;-87
2022/09/02 00:05:26;;;;;;;;;;;;;;;;;;865337;22;829;-87
2022/09/02 00:05:47;;;;;;;;;;;26.80;51.90;;;;;;865297;22;754;-87
2022/09/02 00:06:08;;;;;;;;;;;26.80;52.00;;;;;;865233;22;1922;-88
2022/09/02 00:06:30;;;;;;;;;;;26.90;52.20;;;;;;865300;22;841;-87
2022/09/02 00:06:51;;;;;;;;;;;;;;;;;;865374;22;1202;-87
2022/09/02 00:07:11;;;;;;;;;;;26.80;52.10;;;;;;861044;23;1153;-88
2022/09/02 00:07:32;;;;;;;;;;;26.80;52.40;;;;;;861169;23;826;-87
2022/09/02 00:07:53;;;;;;;;;;;26.80;52.00;;;;;;861164;23;802;-87
2022/09/02 00:08:14;;;;;;;;;;;26.80;52.00;;;;;;860878;23;1250;-87
2022/09/02 00:08:34;;;;;;;;;;;26.80;52.70;;;;;;860958;23;695;-87
2022/09/02 00:08:55;;;;;;;;;;;26.90;52.40;;;;;;861753;22;833;-87
2022/09/02 00:09:17;;;;;;;;;;;26.90;52.10;;;;;;860899;23;1094;-87
2022/09/02 00:09:39;;;;;;;;;;;26.80;52.70;;;;;;855994;23;1211;-88
2022/09/02 00:09:59;;;;;;;;;;;26.80;52.70;;;;;;858118;23;758;-87
2022/09/02 00:10:20;;;;;;;;;;;26.80;52.50;;;;;;856924;23;1173;-87
2022/09/02 00:10:42;;;;;;;;;;;26.80;52.30;;;;;;856797;23;486;-87
2022/09/02 00:11:05;;;;;;;;;;;26.90;52.10;;;;;;857835;23;1231;-88
2022/09/02 00:11:27;;;;;;;;;;;26.80;52.30;;;;;;862537;22;1361;-87
2022/09/02 00:11:48;;;;;;;;;;;26.80;52.30;;;;;;865191;22;1023;-88
2022/09/02 00:12:09;;;;;;;;;;;26.80;52.10;;;;;;861042;23;1231;-87
2022/09/02 00:12:30;;;;;;;;;;;26.80;52.60;;;;;;856943;23;1350;-87
2022/09/02 00:12:51;;;;;;;;;;;26.80;52.30;;;;;;856869;23;1236;-87
2022/09/02 00:13:13;;;;;;;;;;;26.80;52.30;;;;;;853646;23;1097;-87
2022/09/02 00:13:35;;;;;;;;;;;26.80;52.10;;;;;;852563;23;1248;-88
2022/09/02 00:13:56;;;;;;;;;;;26.80;52.20;;;;;;852867;23;980;-87
2022/09/02 00:14:17;;;;;;;;;;;;;;;;;;853936;23;861;-88
2022/09/02 00:14:38;;;;;;;;;;;26.80;52.20;;;;;;853753;23;1358;-88
2022/09/02 00:14:59;;;;;;;;;;;;;;;;;;858268;23;774;-87
2022/09/02 00:15:19;;;;;;;;;;;26.80;52.00;;;;;;860938;23;1193;-87
2022/09/02 00:15:41;;;;;;;;;;;26.80;52.00;;;;;;861008;23;1035;-87
2022/09/02 00:16:02;;;;;;;;;;;;;;;;;;860859;23;845;-88
2022/09/02 00:16:23;;;;;;;;;;;26.80;52.00;;;;;;861701;22;1324;-87
2022/09/02 00:16:49;;;;;;;;;;;26.80;52.00;;;;;;860959;23;1103;-86
2022/09/02 00:17:10;;;;;;;;;;;26.80;52.20;;;;;;863042;22;786;-87
2022/09/02 00:17:31;;;;;;;;;;;;;;;;;;861041;23;1087;-87
2022/09/02 00:17:52;;;;;;;;;;;26.80;52.20;;;;;;861123;23;836;-86
2022/09/02 00:18:13;;;;;;;;;;;;;;;;;;861132;23;782;-85
2022/09/02 00:18:34;;;;;;;;;;;26.80;52.50;;;;;;862947;22;877;-88
2022/09/02 00:18:55;;;;;;;;;;;26.80;52.20;;;;;;865451;22;769;-87
2022/09/02 00:19:17;;;;;;;;;;;26.80;52.10;;;;;;861899;22;1191;-87
2022/09/02 00:19:38;;;;;;;;;;;26.80;52.20;;;;;;860305;23;1144;-87
2022/09/02 00:19:59;;;;;;;;;;;;;;;;;;861163;23;797;-87
2022/09/02 00:20:20;;;;;;;;;;;26.80;52.10;;;;;;861073;23;794;-88
2022/09/02 00:20:42;;;;;;;;;;;26.80;52.10;;;;;;861067;23;808;-88
2022/09/02 00:21:03;;;;;;;;;;;26.70;52.00;;;;;;858093;23;1465;-88
2022/09/02 00:21:24;;;;;;;;;;;26.70;52.00;;;;;;856792;23;1338;-88
2022/09/02 00:21:45;;;;;;;;;;;26.80;52.10;;;;;;852593;23;1098;-87
2022/09/02 00:22:05;;;;;;;;;;;;;;;;;;853566;23;889;-87
2022/09/02 00:22:26;;;;;;;;;;;;;;;;;;856350;23;798;-86
2022/09/02 00:22:47;;;;;;;;;;;26.80;52.30;;;;;;857677;23;778;-88
2022/09/02 00:23:08;;;;;;;;;;;26.70;52.10;;;;;;857593;23;825;-87
2022/09/02 00:23:29;;;;;;;;;;;26.80;52.20;;;;;;861734;22;817;-87
2022/09/02 00:23:49;;;;;;;;;;;26.80;52.10;;;;;;865377;22;818;-88
2022/09/02 00:24:10;;;;;;;;;;;26.70;52.10;;;;;;865291;22;1370;-87
2022/09/02 00:24:31;;;;;;;;;;;26.70;52.30;;;;;;865321;22;769;-87
2022/09/02 00:24:51;;;;;;;;;;;26.80;52.10;;;;;;861022;23;1297;-87
2022/09/02 00:25:12;;;;;;;;;;;26.70;52.00;;;;;;861649;22;881;-86
2022/09/02 00:25:33;;;;;;;;;;;26.70;52.00;;;;;;860973;23;1168;-88
2022/09/02 00:25:54;;;;;;;;;;;26.70;52.20;;;;;;856854;23;1382;-87
2022/09/02 00:26:14;;;;;;;;;;;26.70;52.20;;;;;;856989;23;1936;-87
2022/09/02 00:26:35;;;;;;;;;;;26.70;52.10;;;;;;857478;23;1175;-87
2022/09/02 00:26:56;;;;;;;;;;;26.70;52.00;;;;;;861145;23;789;-87
2022/09/02 00:27:17;;;;;;;;;;;;;;;;;;861461;22;828;-87
2022/09/02 00:27:37;;;;;;;;;;;26.70;52.10;;;;;;860947;23;1463;-87
2022/09/02 00:27:58;;;;;;;;;;;26.70;52.00;;;;;;856942;23;1097;-88
2022/09/02 00:28:19;;;;;;;;;;;26.70;52.10;;;;;;853245;23;878;-87
2022/09/02 00:28:40;;;;;;;;;;;26.70;52.30;;;;;;852675;23;1281;-87
2022/09/02 00:29:01;;;;;;;;;;;26.70;52.40;;;;;;852875;23;797;-87
2022/09/02 00:29:21;;;;;;;;;;;26.70;52.00;;;;;;853566;23;762;-88
2022/09/02 00:29:42;;;;;;;;;;;26.70;52.10;;;;;;857422;23;810;-88
2022/09/02 00:30:03;;;;;;;;;;;26.70;52.00;;;;;;857296;23;1271;-87
2022/09/02 00:30:24;;;;;;;;;;;26.70;51.90;;;;;;861737;22;1137;-87
2022/09/02 00:30:45;;;;;;;;;;;26.70;51.90;;;;;;865152;22;1198;-87
2022/09/02 00:31:05;;;;;;;;;;;26.70;52.10;;;;;;860927;23;1251;-87
2022/09/02 00:31:27;;;;;;;;;;;26.70;52.40;;;;;;856990;23;1140;-87
2022/09/02 00:31:48;;;;;;;;;;;26.70;52.20;;;;;;852582;23;1195;-87
2022/09/02 00:32:08;;;;;;;;;;;26.70;52.40;;;;;;852694;23;789;-87
2022/09/02 00:32:29;;;;;;;;;;;26.70;52.40;;;;;;853382;23;1308;-88
2022/09/02 00:32:50;;;;;;;;;;;26.70;52.30;;;;;;853381;23;1457;-87
2022/09/02 00:33:11;;;;;;;;;;;26.70;52.30;;;;;;857492;23;967;-88
2022/09/02 00:33:32;;;;;;;;;;;;;;;;;;856659;23;1388;-88
2022/09/02 00:33:52;;;;;;;;;;;26.70;52.30;;;;;;852567;23;1219;-88
2022/09/02 00:34:13;;;;;;;;;;;26.70;52.10;;;;;;853295;23;1169;-87
2022/09/02 00:34:34;;;;;;;;;;;26.70;52.00;;;;;;857467;23;817;-88
2022/09/02 00:34:57;;;;;;;;;;;26.70;52.30;;;;;;856808;23;1062;-87
2022/09/02 00:35:18;;;;;;;;;;;26.70;52.20;;;;;;853857;23;1269;-88
2022/09/02 00:35:38;;;;;;;;;;;26.70;52.30;;;;;;857943;23;1337;-88
2022/09/02 00:36:00;;;;;;;;;;;26.70;52.20;;;;;;861178;23;722;-87
2022/09/02 00:36:20;;;;;;;;;;;26.70;52.10;;;;;;860929;23;915;-88
2022/09/02 00:36:41;;;;;;;;;;;26.70;52.10;;;;;;862340;22;872;-88
2022/09/02 00:37:02;;;;;;;;;;;;;;;;;;865963;22;813;-88
2022/09/02 00:37:23;;;;;;;;;;;26.70;52.20;;;;;;869800;22;903;-87
2022/09/02 00:37:43;;;;;;;;;;;26.70;52.20;;;;;;869710;22;792;-87
2022/09/02 00:38:04;;;;;;;;;;;26.70;52.10;;;;;;865150;22;1196;-87
2022/09/02 00:38:24;;;;;;;;;;;26.70;52.00;;;;;;865364;22;789;-87
2022/09/02 00:38:45;;;;;;;;;;;26.70;52.00;;;;;;860929;23;1288;-87
2022/09/02 00:39:07;;;;;;;;;;;26.70;52.00;;;;;;860962;23;840;-87
2022/09/02 00:39:28;;;;;;;;;;;26.70;52.30;;;;;;861105;23;1267;-87
2022/09/02 00:39:49;;;;;;;;;;;26.70;52.50;;;;;;861654;22;1394;-87
2022/09/02 00:40:10;;;;;;;;;;;26.70;52.30;;;;;;865033;22;1144;-87
2022/09/02 00:40:31;;;;;;;;;;;;;;;;;;860972;23;844;-87
2022/09/02 00:40:52;;;;;;;;;;;26.70;52.30;;;;;;861250;23;753;-87
2022/09/02 00:41:13;;;;;;;;;;;;;;;;;;860979;23;766;-87
2022/09/02 00:41:34;;;;;;;;;;;26.70;52.10;;;;;;860971;23;880;-87
2022/09/02 00:41:55;;;;;;;;;;;26.70;52.10;;;;;;862129;22;813;-86
2022/09/02 00:42:16;;;;;;;;;;;26.70;52.10;;;;;;861190;22;832;-87
2022/09/02 00:42:37;;;;;;;;;;;26.60;52.10;;;;;;865194;22;753;-87
2022/09/02 00:42:57;;;;;;;;;;;26.70;52.50;;;;;;861133;23;1425;-87
2022/09/02 00:43:36;;;;;;;;;;;26.70;52.80;;;;;;861003;23;788;-87
2022/09/02 00:43:58;;;;;;;;;;;26.70;52.00;;;;;;856788;23;1181;-87
2022/09/02 00:44:21;;;;;;;;;;;26.70;51.90;;;;;;860971;23;805;-87
2022/09/02 00:44:42;;;;;;;;;;;26.70;51.80;;;;;;861574;22;884;-87
2022/09/02 00:45:03;;;;;;;;;;;;;;;;;;860853;23;1306;-87
2022/09/02 00:45:24;;;;;;;;;;;26.60;51.80;;;;;;861158;23;793;-87
2022/09/02 00:45:45;;;;;;;;;;;26.70;52.00;;;;;;862401;22;892;-86
2022/09/02 00:46:06;;;;;;;;;;;26.70;51.80;;;;;;865201;22;1934;-87
2022/09/02 00:46:27;;;;;;;;;;;;;;;;;;865351;22;738;-87
2022/09/02 00:46:48;;;;;;;;;;;26.70;51.80;;;;;;866278;22;738;-87
2022/09/02 00:47:08;;;;;;;;;;;26.70;51.70;;;;;;865062;22;1217;-87
2022/09/02 00:47:29;;;;;;;;;;;26.70;51.90;;;;;;865483;22;801;-87
2022/09/02 00:47:50;;;;;;;;;;;26.70;51.90;;;;;;860868;23;1458;-86
2022/09/02 00:48:11;;;;;;;;;;;26.70;51.90;;;;;;860994;23;1406;-87
2022/09/02 00:48:32;;;;;;;;;;;;;;;;;;861102;23;861;-87
2022/09/02 00:49:10;;;;;;;;;;;26.70;51.80;;;;;;861824;22;932;-87
2022/09/02 00:49:31;;;;;;;;;;;26.70;52.00;;;;;;865150;22;977;-87
2022/09/02 00:49:53;;;;;;;;;;;;;;;;;;870022;22;796;-87
2022/09/02 00:50:15;;;;;;;;;;;26.80;52.00;;;;;;869796;22;792;-87
2022/09/02 00:50:36;;;;;;;;;;;26.80;51.80;;;;;;865114;22;1444;-87
2022/09/02 00:50:56;;;;;;;;;;;;;;;;;;865388;22;761;-87
2022/09/02 00:51:17;;;;;;;;;;;26.80;51.90;;;;;;860921;23;1194;-87
2022/09/02 00:51:58;;;;;;;;;;;26.70;51.70;;;;;;860958;23;821;-87
2022/09/02 00:52:25;;;;;;;;;;;26.80;51.80;;;;;;860738;22;1138;-87
2022/09/02 00:52:52;;;;;;;;;;;26.80;51.80;;;;;;865265;22;892;-87
2022/09/02 00:53:13;;;;;;;;;;;26.80;51.70;;;;;;860836;23;789;-87
2022/09/02 00:53:34;;;;;;;;;;;26.80;51.60;;;;;;859976;23;1103;-87
2022/09/02 00:53:55;;;;;;;;;;;26.70;51.50;;;;;;861214;23;761;-87
2022/09/02 00:54:16;;;;;;;;;;;;;;;;;;861072;23;817;-87
2022/09/02 00:54:37;;;;;;;;;;;;;;;;;;861140;23;817;-88
2022/09/02 00:55:06;;;;;;;;;;;26.80;51.50;;;;;;861918;22;789;-87
2022/09/02 00:55:29;;;;;;;;;;;26.80;51.70;;;;;;863342;22;1235;-87
2022/09/02 00:55:50;;;;;;;;;;;26.80;51.60;;;;;;860851;23;1169;-88
2022/09/02 00:56:13;;;;;;;;;;;26.80;51.70;;;;;;861085;23;817;-87
2022/09/02 00:56:33;;;;;;;;;;;;;;;;;;860966;23;828;-87
2022/09/02 00:56:55;;;;;;;;;;;26.80;51.40;;;;;;861108;23;869;-87
2022/09/02 00:57:18;;;;;;;;;;;26.80;51.50;;;;;;858285;23;1177;-87
2022/09/02 00:57:40;;;;;;;;;;;26.80;51.50;;;;;;862875;22;809;-87
2022/09/02 00:58:06;;;;;;;;;;;26.80;51.70;;;;;;865410;22;828;-87
2022/09/02 00:58:28;;;;;;;;;;;26.70;51.40;;;;;;865380;22;765;-87
2022/09/02 00:58:50;;;;;;;;;;;26.80;51.50;;;;;;860825;23;1275;-87
2022/09/02 00:59:13;;;;;;;;;;;26.80;51.50;;;;;;864142;22;892;-87
2022/09/02 00:59:45;;;;;;;;;;;26.80;51.40;;;;;;860916;23;1329;-87
2022/09/02 01:00:16;;;;;;;;;;;26.80;51.40;;;;;;856718;23;1079;-87
2022/09/02 01:00:37;;;;;;;;;;;;;;;;;;858165;23;1122;-88
2022/09/02 01:00:58;;;;;;;;;;;26.80;51.50;;;;;;861222;23;739;-87
2022/09/02 01:01:21;;;;;;;;;;;26.80;51.40;;;;;;856749;23;1049;-87
2022/09/02 01:01:41;;;;;;;;;;;26.80;51.50;;;;;;856240;23;1268;-87
2022/09/02 01:02:02;;;;;;;;;;;26.80;51.50;;;;;;860127;23;1248;-87
2022/09/02 01:02:24;;;;;;;;;;;26.80;51.30;;;;;;862167;22;801;-87
2022/09/02 01:02:49;;;;;;;;;;;26.80;51.30;;;;;;860892;23;1230;-87
2022/09/02 01:03:13;;;;;;;;;;;26.80;51.30;;;;;;861033;23;745;-87
2022/09/02 01:03:33;;;;;;;;;;;26.80;51.30;;;;;;860970;23;860;-87
2022/09/02 01:03:55;;;;;;;;;;;26.80;51.30;;;;;;863463;22;730;-87
2022/09/02 01:04:16;;;;;;;;;;;26.80;51.30;;;;;;865326;22;781;-87
2022/09/02 01:04:36;;;;;;;;;;;26.80;51.30;;;;;;865143;22;1107;-87
2022/09/02 01:05:02;;;;;;;;;;;26.80;51.20;;;;;;860990;23;1339;-87
2022/09/02 01:05:23;;;;;;;;;;;;;;;;;;861037;23;789;-87
2022/09/02 01:05:45;;;;;;;;;;;26.80;51.20;;;;;;860850;23;1156;-86
2022/09/02 01:06:06;;;;;;;;;;;;;;;;;;860842;23;1897;-87
2022/09/02 01:06:29;;;;;;;;;;;;;;;;;;860948;23;1192;-87
2022/09/02 01:06:51;;;;;;;;;;;26.80;51.10;;;;;;863602;22;825;-87
2022/09/02 01:07:12;;;;;;;;;;;;;;;;;;865272;22;785;-87
2022/09/02 01:07:34;;;;;;;;;;;26.70;51.10;;;;;;860840;23;1119;-87
2022/09/02 01:07:55;;;;;;;;;;;26.70;51.00;;;;;;856618;23;1143;-87
2022/09/02 01:08:18;;;;;;;;;;;26.80;51.20;;;;;;857513;23;1431;-87
2022/09/02 01:08:39;;;;;;;;;;;26.80;51.10;;;;;;860998;23;848;-86
2022/09/02 01:09:13;;;;;;;;;;;26.70;51.10;;;;;;861129;23;943;-87
2022/09/02 01:09:35;;;;;;;;;;;;;;;;;;865117;22;828;-87
2022/09/02 01:09:55;;;;;;;;;;;26.80;51.20;;;;;;865184;22;1396;-87
2022/09/02 01:10:19;;;;;;;;;;;26.80;51.20;;;;;;865281;22;801;-87
2022/09/02 01:10:41;;;;;;;;;;;26.70;51.10;;;;;;865184;22;837;-87
2022/09/02 01:11:03;;;;;;;;;;;;;;;;;;865212;22;785;-86
2022/09/02 01:11:27;;;;;;;;;;;26.80;51.70;;;;;;865328;22;840;-87
2022/09/02 01:11:51;;;;;;;;;;;26.80;51.10;;;;;;867733;22;801;-87
2022/09/02 01:12:14;;;;;;;;;;;26.80;51.10;;;;;;869888;22;730;-87
2022/09/02 01:12:35;;;;;;;;;;;26.80;51.00;;;;;;869744;22;848;-87
2022/09/02 01:12:56;;;;;;;;;;;26.80;51.00;;;;;;865202;22;1097;-87
2022/09/02 01:13:17;;;;;;;;;;;;;;;;;;860978;23;864;-87
2022/09/02 01:13:40;;;;;;;;;;;26.80;51.10;;;;;;860782;23;1161;-88
2022/09/02 01:14:01;;;;;;;;;;;26.70;51.00;;;;;;861080;23;817;-86
2022/09/02 01:14:21;;;;;;;;;;;26.70;51.00;;;;;;860851;23;1145;-87
2022/09/02 01:14:42;;;;;;;;;;;26.70;51.00;;;;;;860913;23;801;-87
2022/09/02 01:15:04;;;;;;;;;;;26.70;51.40;;;;;;860906;23;877;-87
2022/09/02 01:15:25;;;;;;;;;;;26.80;51.30;;;;;;862238;22;809;-87
2022/09/02 01:15:47;;;;;;;;;;;26.80;51.00;;;;;;865245;22;769;-87
2022/09/02 01:16:10;;;;;;;;;;;26.70;51.10;;;;;;861512;22;1392;-87
2022/09/02 01:16:40;;;;;;;;;;;26.80;51.10;;;;;;860958;23;1197;-86
2022/09/02 01:17:01;;;;;;;;;;;;;;;;;;861161;23;821;-87
2022/09/02 01:17:24;;;;;;;;;;;26.70;51.10;;;;;;860951;23;1088;-87
2022/09/02 01:17:46;;;;;;;;;;;26.80;51.00;;;;;;861024;23;785;-87
2022/09/02 01:18:08;;;;;;;;;;;26.70;51.00;;;;;;861004;23;892;-86
2022/09/02 01:18:28;;;;;;;;;;;26.80;51.10;;;;;;864447;22;1063;-87
2022/09/02 01:18:51;;;;;;;;;;;26.70;50.90;;;;;;865324;22;817;-87
2022/09/02 01:19:17;;;;;;;;;;;26.80;51.10;;;;;;865236;22;788;-87
2022/09/02 01:19:41;;;;;;;;;;;26.70;51.00;;;;;;860121;23;1270;-86
2022/09/02 01:20:02;;;;;;;;;;;;;;;;;;861002;23;797;-87
2022/09/02 01:20:24;;;;;;;;;;;26.70;50.90;;;;;;859788;23;1089;-87
2022/09/02 01:20:44;;;;;;;;;;;26.70;50.90;;;;;;856807;23;1214;-87
2022/09/02 01:21:05;;;;;;;;;;;26.70;51.10;;;;;;856893;23;853;-88
2022/09/02 01:21:26;;;;;;;;;;;26.80;51.40;;;;;;854113;23;1270;-87
2022/09/02 01:21:47;;;;;;;;;;;26.80;51.20;;;;;;856793;23;738;-87
2022/09/02 01:22:17;;;;;;;;;;;26.80;51.10;;;;;;857566;23;1206;-87
2022/09/02 01:22:37;;;;;;;;;;;;;;;;;;863593;22;919;-88
2022/09/02 01:22:59;;;;;;;;;;;26.80;51.10;;;;;;861043;23;1087;-87
2022/09/02 01:23:19;;;;;;;;;;;26.80;51.20;;;;;;856856;23;1217;-87
2022/09/02 01:23:40;;;;;;;;;;;26.80;51.00;;;;;;856831;23;1226;-87
2022/09/02 01:24:01;;;;;;;;;;;26.80;51.10;;;;;;856984;23;750;-87
2022/09/02 01:24:22;;;;;;;;;;;26.80;51.10;;;;;;856847;23;801;-87
2022/09/02 01:24:43;;;;;;;;;;;26.80;51.00;;;;;;857649;23;753;-87
2022/09/02 01:25:05;;;;;;;;;;;26.80;51.00;;;;;;857490;23;1552;-87
2022/09/02 01:25:28;;;;;;;;;;;26.80;51.20;;;;;;862166;22;965;-87
2022/09/02 01:25:48;;;;;;;;;;;26.80;50.90;;;;;;865225;22;797;-87
2022/09/02 01:26:09;;;;;;;;;;;26.80;50.90;;;;;;865203;22;1889;-87
2022/09/02 01:26:30;;;;;;;;;;;26.80;50.90;;;;;;861079;23;1298;-87
2022/09/02 01:26:51;;;;;;;;;;;26.80;50.90;;;;;;862233;22;722;-87
2022/09/02 01:27:14;;;;;;;;;;;26.80;51.00;;;;;;865208;22;773;-87
2022/09/02 01:27:35;;;;;;;;;;;26.80;51.00;;;;;;865155;22;808;-87
2022/09/02 01:28:01;;;;;;;;;;;26.80;50.90;;;;;;865195;22;856;-87
2022/09/02 01:28:22;;;;;;;;;;;26.80;51.00;;;;;;860840;23;1163;-87
2022/09/02 01:28:42;;;;;;;;;;;26.80;51.10;;;;;;861062;23;782;-87
2022/09/02 01:29:03;;;;;;;;;;;26.80;50.90;;;;;;861144;23;809;-87
2022/09/02 01:29:24;;;;;;;;;;;26.80;51.00;;;;;;861010;23;1249;-87
2022/09/02 01:29:49;;;;;;;;;;;26.80;50.80;;;;;;862472;22;1353;-87
2022/09/02 01:30:12;;;;;;;;;;;26.70;50.80;;;;;;865340;22;746;-87
2022/09/02 01:30:32;;;;;;;;;;;26.80;51.10;;;;;;865243;22;793;-87
2022/09/02 01:30:53;;;;;;;;;;;;;;;;;;865361;22;820;-86
2022/09/02 01:31:14;;;;;;;;;;;26.80;50.90;;;;;;865261;22;832;-87
2022/09/02 01:31:35;;;;;;;;;;;26.80;50.90;;;;;;862735;22;1188;-87
2022/09/02 01:31:56;;;;;;;;;;;26.80;50.90;;;;;;865255;22;856;-87
2022/09/02 01:32:17;;;;;;;;;;;26.80;50.90;;;;;;865162;22;840;-87
2022/09/02 01:32:38;;;;;;;;;;;;;;;;;;865264;22;832;-87
2022/09/02 01:32:58;;;;;;;;;;;26.70;50.80;;;;;;861090;23;1260;-87
2022/09/02 01:33:20;;;;;;;;;;;26.70;50.70;;;;;;861766;22;968;-87
2022/09/02 01:33:41;;;;;;;;;;;26.70;50.70;;;;;;865251;22;1157;-87
2022/09/02 01:34:02;;;;;;;;;;;;;;;;;;864381;22;1299;-87
2022/09/02 01:34:23;;;;;;;;;;;;;;;;;;865319;22;887;-87
2022/09/02 01:34:44;;;;;;;;;;;26.70;50.80;;;;;;865267;22;825;-86
2022/09/02 01:35:05;;;;;;;;;;;26.70;50.90;;;;;;865189;22;812;-86
2022/09/02 01:35:25;;;;;;;;;;;26.70;50.90;;;;;;865210;22;1167;-86
2022/09/02 01:35:46;;;;;;;;;;;26.70;51.20;;;;;;865192;22;861;-87
2022/09/02 01:36:07;;;;;;;;;;;26.70;51.10;;;;;;860905;23;1206;-87
2022/09/02 01:36:28;;;;;;;;;;;26.70;50.90;;;;;;861216;23;816;-87
2022/09/02 01:36:48;;;;;;;;;;;26.70;50.90;;;;;;861146;23;757;-87
2022/09/02 01:37:09;;;;;;;;;;;26.70;50.90;;;;;;861653;22;726;-87
2022/09/02 01:37:31;;;;;;;;;;;26.70;50.90;;;;;;860909;23;1444;-86
2022/09/02 01:37:54;;;;;;;;;;;26.70;50.90;;;;;;861698;22;801;-87
2022/09/02 01:38:14;;;;;;;;;;;26.70;50.90;;;;;;865236;22;746;-87
2022/09/02 01:38:35;;;;;;;;;;;26.70;50.90;;;;;;865224;22;796;-86
2022/09/02 01:38:56;;;;;;;;;;;;;;;;;;860915;23;1278;-86
2022/09/02 01:39:17;;;;;;;;;;;26.70;50.90;;;;;;858156;23;1218;-86
2022/09/02 01:39:37;;;;;;;;;;;;;;;;;;861038;23;1164;-87
2022/09/02 01:39:59;;;;;;;;;;;26.70;50.90;;;;;;860901;23;1227;-87
2022/09/02 01:40:19;;;;;;;;;;;26.60;50.80;;;;;;860904;23;758;-87
2022/09/02 01:40:40;;;;;;;;;;;26.60;50.80;;;;;;861607;22;797;-87
2022/09/02 01:41:01;;;;;;;;;;;26.70;50.90;;;;;;865354;22;813;-87
2022/09/02 01:41:21;;;;;;;;;;;26.70;50.90;;;;;;865287;22;788;-86
2022/09/02 01:41:42;;;;;;;;;;;26.60;51.00;;;;;;861461;22;1170;-86
2022/09/02 01:42:03;;;;;;;;;;;26.60;50.80;;;;;;865198;22;769;-87
2022/09/02 01:42:24;;;;;;;;;;;26.60;50.70;;;;;;865313;22;789;-86
2022/09/02 01:42:45;;;;;;;;;;;26.60;50.70;;;;;;865158;22;805;-87
2022/09/02 01:43:06;;;;;;;;;;;;;;;;;;864869;22;769;-87
2022/09/02 01:43:28;;;;;;;;;;;;;;;;;;866258;22;793;-87
2022/09/02 01:43:48;;;;;;;;;;;26.60;50.80;;;;;;865025;22;1175;-87
2022/09/02 01:44:09;;;;;;;;;;;26.60;50.90;;;;;;865201;22;801;-88
2022/09/02 01:44:30;;;;;;;;;;;26.60;50.80;;;;;;865286;22;836;-87
2022/09/02 01:44:50;;;;;;;;;;;26.60;50.90;;;;;;860873;23;1179;-87
2022/09/02 01:45:11;;;;;;;;;;;26.60;50.90;;;;;;856697;23;1231;-87
2022/09/02 01:45:32;;;;;;;;;;;26.60;51.00;;;;;;857278;23;849;-87
2022/09/02 01:45:54;;;;;;;;;;;26.60;51.00;;;;;;861141;23;722;-86
2022/09/02 01:46:15;;;;;;;;;;;26.60;51.00;;;;;;856557;23;1932;-87
2022/09/02 01:46:36;;;;;;;;;;;26.60;51.30;;;;;;857595;23;777;-87
2022/09/02 01:46:57;;;;;;;;;;;26.60;51.30;;;;;;862048;22;773;-87
2022/09/02 01:47:17;;;;;;;;;;;;;;;;;;865140;22;1028;-88
2022/09/02 01:47:38;;;;;;;;;;;26.60;51.10;;;;;;865204;22;781;-87
2022/09/02 01:47:59;;;;;;;;;;;26.60;51.30;;;;;;865975;22;849;-86
2022/09/02 01:48:19;;;;;;;;;;;26.60;51.20;;;;;;865005;22;790;-86
2022/09/02 01:48:40;;;;;;;;;;;26.60;51.10;;;;;;860847;23;1448;-86
2022/09/02 01:49:01;;;;;;;;;;;26.60;51.10;;;;;;861051;23;1205;-87
2022/09/02 01:49:21;;;;;;;;;;;26.60;51.10;;;;;;856665;23;1505;-86
2022/09/02 01:49:42;;;;;;;;;;;26.60;51.00;;;;;;856650;23;981;-87
2022/09/02 01:50:04;;;;;;;;;;;26.50;51.30;;;;;;857392;23;810;-86
2022/09/02 01:50:25;;;;;;;;;;;26.50;51.30;;;;;;861120;23;808;-87
2022/09/02 01:50:48;;;;;;;;;;;26.60;51.10;;;;;;861587;22;1309;-86
2022/09/02 01:51:14;;;;;;;;;;;26.50;51.00;;;;;;866505;22;833;-87
2022/09/02 01:51:35;;;;;;;;;;;;;;;;;;869501;22;916;-87
2022/09/02 01:51:55;;;;;;;;;;;26.60;51.30;;;;;;869588;22;1022;-87
2022/09/02 01:52:17;;;;;;;;;;;26.60;51.10;;;;;;869371;22;911;-87
2022/09/02 01:52:38;;;;;;;;;;;;;;;;;;869755;22;773;-87
2022/09/02 01:53:00;;;;;;;;;;;26.50;51.10;;;;;;865152;22;1431;-86
2022/09/02 01:53:21;;;;;;;;;;;26.50;51.30;;;;;;865191;22;816;-86
2022/09/02 01:53:42;;;;;;;;;;;26.60;51.30;;;;;;865175;22;770;-87
2022/09/02 01:54:03;;;;;;;;;;;26.60;51.10;;;;;;865336;22;761;-86
2022/09/02 01:54:23;;;;;;;;;;;26.50;51.20;;;;;;865364;22;824;-86
2022/09/02 01:54:44;;;;;;;;;;;26.60;51.40;;;;;;861857;22;1228;-87
2022/09/02 01:55:05;;;;;;;;;;;26.60;51.50;;;;;;865224;22;801;-87
2022/09/02 01:55:25;;;;;;;;;;;26.60;51.40;;;;;;865324;22;816;-86
2022/09/02 01:55:46;;;;;;;;;;;26.50;51.10;;;;;;865252;22;876;-86
2022/09/02 01:56:07;;;;;;;;;;;26.50;51.40;;;;;;865268;22;804;-86
2022/09/02 01:56:27;;;;;;;;;;;;;;;;;;865889;22;940;-87
2022/09/02 01:56:48;;;;;;;;;;;26.60;51.30;;;;;;869713;22;916;-86
2022/09/02 01:57:09;;;;;;;;;;;26.60;51.30;;;;;;869746;22;808;-87
2022/09/02 01:57:30;;;;;;;;;;;26.60;51.20;;;;;;869852;22;816;-86
2022/09/02 01:57:50;;;;;;;;;;;26.60;51.10;;;;;;865332;22;833;-87
2022/09/02 01:58:11;;;;;;;;;;;26.50;51.00;;;;;;865516;22;742;-87
2022/09/02 01:58:31;;;;;;;;;;;26.50;51.20;;;;;;865782;22;928;-87
2022/09/02 01:58:52;;;;;;;;;;;26.50;51.10;;;;;;869838;22;824;-87
2022/09/02 01:59:16;;;;;;;;;;;26.50;51.10;;;;;;869710;22;750;-86
2022/09/02 01:59:39;;;;;;;;;;;26.50;51.30;;;;;;869710;22;856;-87
2022/09/02 02:00:00;;;;;;;;;;;26.50;51.30;;;;;;869709;22;909;-86
2022/09/02 02:00:21;;;;;;;;;;;26.50;51.30;;;;;;865000;22;1111;-87
2022/09/02 02:00:42;;;;;;;;;;;;;;;;;;865344;22;754;-87
2022/09/02 02:01:03;;;;;;;;;;;26.50;51.20;;;;;;865329;22;805;-87
2022/09/02 02:01:24;;;;;;;;;;;26.50;51.40;;;;;;865298;22;824;-87
2022/09/02 02:01:44;;;;;;;;;;;26.50;51.30;;;;;;865154;22;885;-87
2022/09/02 02:02:05;;;;;;;;;;;26.50;51.30;;;;;;865944;22;824;-86
2022/09/02 02:02:26;;;;;;;;;;;26.50;51.50;;;;;;869884;22;789;-86
2022/09/02 02:02:47;;;;;;;;;;;26.50;51.50;;;;;;869732;22;1023;-87
2022/09/02 02:03:07;;;;;;;;;;;26.50;51.40;;;;;;869796;22;832;-87
2022/09/02 02:03:28;;;;;;;;;;;26.50;51.30;;;;;;865259;22;1437;-87
2022/09/02 02:03:49;;;;;;;;;;;26.50;51.50;;;;;;865172;22;730;-87
2022/09/02 02:04:10;;;;;;;;;;;26.50;51.50;;;;;;865207;22;801;-87
2022/09/02 02:04:31;;;;;;;;;;;26.50;51.40;;;;;;865334;22;734;-86
2022/09/02 02:04:52;;;;;;;;;;;26.50;51.50;;;;;;865329;22;805;-86
2022/09/02 02:05:14;;;;;;;;;;;26.50;51.70;;;;;;861676;22;1056;-86
2022/09/02 02:05:35;;;;;;;;;;;26.50;51.60;;;;;;865181;22;809;-87
2022/09/02 02:05:55;;;;;;;;;;;26.50;51.50;;;;;;865368;22;765;-86
2022/09/02 02:06:16;;;;;;;;;;;26.50;51.50;;;;;;860831;23;1931;-87
2022/09/02 02:06:41;;;;;;;;;;;26.50;51.80;;;;;;860847;23;1104;-87
2022/09/02 02:07:02;;;;;;;;;;;;;;;;;;860933;23;774;-87
2022/09/02 02:07:23;;;;;;;;;;;26.50;51.60;;;;;;861045;23;491;-87
2022/09/02 02:07:44;;;;;;;;;;;26.50;51.50;;;;;;860335;23;1376;-87
2022/09/02 02:08:05;;;;;;;;;;;26.50;51.60;;;;;;860979;23;809;-87
2022/09/02 02:08:25;;;;;;;;;;;26.50;51.60;;;;;;862608;22;777;-86
2022/09/02 02:08:46;;;;;;;;;;;26.50;51.60;;;;;;860970;23;1094;-87
2022/09/02 02:09:07;;;;;;;;;;;26.50;51.50;;;;;;861120;23;766;-86
2022/09/02 02:09:28;;;;;;;;;;;;;;;;;;861690;22;719;-86
2022/09/02 02:09:49;;;;;;;;;;;26.50;51.40;;;;;;865080;22;809;-86
2022/09/02 02:10:10;;;;;;;;;;;26.50;51.50;;;;;;865299;22;778;-87
2022/09/02 02:10:31;;;;;;;;;;;26.50;51.50;;;;;;866232;22;802;-87
2022/09/02 02:10:52;;;;;;;;;;;26.50;51.50;;;;;;865213;22;959;-87
2022/09/02 02:11:18;;;;;;;;;;;26.50;51.60;;;;;;865202;22;841;-86
2022/09/02 02:11:39;;;;;;;;;;;26.50;51.60;;;;;;865166;22;785;-86
2022/09/02 02:12:00;;;;;;;;;;;26.50;51.50;;;;;;860942;23;1109;-87
2022/09/02 02:12:20;;;;;;;;;;;26.50;51.50;;;;;;861001;23;825;-86
2022/09/02 02:12:41;;;;;;;;;;;26.50;51.50;;;;;;862611;22;817;-87
2022/09/02 02:13:02;;;;;;;;;;;26.50;51.60;;;;;;865065;22;833;-86
2022/09/02 02:13:22;;;;;;;;;;;26.50;51.60;;;;;;865329;22;762;-87
2022/09/02 02:13:43;;;;;;;;;;;26.50;51.60;;;;;;865144;22;801;-86